sensor_id;sensor_type;location;lat;lon;timestamp;temperature;humidity
14378;DHT22;7272;53.668;9.578;2023-07-30T00:00:13;17.80;99.90
14378;DHT22;7272;53.668;9.578;2023-07-30T00:03:14;17.80;99.90
14378;DHT22;7272;53.668;9.578;2023-07-30T00:06:15;17.90;99.90
14378;DHT22;7272;53.668;9.578;2023-07-30T00:09:17;17.90;99.90
14378;DHT22;7272;53.668;9.578;2023-07-30T00:12:18;17.90;99.90
14378;DHT22;7272;53.668;9.578;2023-07-30T00:15:20;18.00;99.90
14378;DHT22;7272;53.668;9.578;2023-07-30T00:18:21;18.00;99.90
14378;DHT22;7272;53.668;9.578;2023-07-30T00:21:22;18.10;99.90
14378;DHT22;7272;53.668;9.578;2023-07-30T00:24:23;18.10;99.90
14378;DHT22;7272;53.668;9.578;2023-07-30T00:27:25;18.10;99.90
14378;DHT22;7272;53.668;9.578;2023-07-30T00:30:26;18.10;99.90
14378;DHT22;7272;53.668;9.578;2023-07-30T00:33:27;18.10;99.90
14378;DHT22;7272;53.668;9.578;2023-07-30T00:36:29;18.10;99.90
14378;DHT22;7272;53.668;9.578;2023-07-30T00:39:30;18.10;99.90
14378;DHT22;7272;53.668;9.578;2023-07-30T00:42:31;18.20;99.90
14378;DHT22;7272;53.668;9.578;2023-07-30T00:45:33;18.20;99.90
14378;DHT22;7272;53.668;9.578;2023-07-30T00:48:35;18.20;99.90
14378;DHT22;7272;53.668;9.578;2023-07-30T00:51:36;18.20;99.90
14378;DHT22;7272;53.668;9.578;2023-07-30T00:54:39;18.10;99.90
14378;DHT22;7272;53.668;9.578;2023-07-30T00:57:41;18.10;99.90
14378;DHT22;7272;53.668;9.578;2023-07-30T01:00:43;18.10;99.90
14378;DHT22;7272;53.668;9.578;2023-07-30T01:03:44;18.00;99.90
14378;DHT22;7272;53.668;9.578;2023-07-30T01:06:46;18.00;99.90
14378;DHT22;7272;53.668;9.578;2023-07-30T01:09:47;17.90;99.90
14378;DHT22;7272;53.668;9.578;2023-07-30T01:12:50;17.90;99.90
14378;DHT22;7272;53.668;9.578;2023-07-30T01:15:52;17.90;99.90
14378;DHT22;7272;53.668;9.578;2023-07-30T01:18:54;17.80;99.90
14378;DHT22;7272;53.668;9.578;2023-07-30T01:21:56;17.80;99.90
14378;DHT22;7272;53.668;9.578;2023-07-30T01:24:58;17.80;99.90
14378;DHT22;7272;53.668;9.578;2023-07-30T01:28:01;17.80;99.90
14378;DHT22;7272;53.668;9.578;2023-07-30T01:31:03;17.80;99.90
14378;DHT22;7272;53.668;9.578;2023-07-30T01:34:06;17.70;99.90
14378;DHT22;7272;53.668;9.578;2023-07-30T01:37:11;17.60;99.90
14378;DHT22;7272;53.668;9.578;2023-07-30T01:40:13;17.60;99.90
14378;DHT22;7272;53.668;9.578;2023-07-30T01:43:14;17.60;99.90
14378;DHT22;7272;53.668;9.578;2023-07-30T01:46:16;17.70;99.90
14378;DHT22;7272;53.668;9.578;2023-07-30T01:49:17;17.70;99.90
14378;DHT22;7272;53.668;9.578;2023-07-30T01:52:19;17.60;99.90
14378;DHT22;7272;53.668;9.578;2023-07-30T01:55:20;17.60;99.90
14378;DHT22;7272;53.668;9.578;2023-07-30T01:58:21;17.60;99.90
14378;DHT22;7272;53.668;9.578;2023-07-30T02:01:22;17.60;99.90
14378;DHT22;7272;53.668;9.578;2023-07-30T02:04:23;17.50;99.90
14378;DHT22;7272;53.668;9.578;2023-07-30T02:07:25;17.50;99.90
14378;DHT22;7272;53.668;9.578;2023-07-30T02:10:26;17.60;99.90
14378;DHT22;7272;53.668;9.578;2023-07-30T02:13:28;17.60;99.90
14378;DHT22;7272;53.668;9.578;2023-07-30T02:16:29;17.60;99.90
14378;DHT22;7272;53.668;9.578;2023-07-30T02:19:30;17.50;99.90
14378;DHT22;7272;53.668;9.578;2023-07-30T02:22:32;17.60;99.90
14378;DHT22;7272;53.668;9.578;2023-07-30T02:25:33;17.60;99.90
14378;DHT22;7272;53.668;9.578;2023-07-30T02:28:34;17.60;99.90
14378;DHT22;7272;53.668;9.578;2023-07-30T02:31:35;17.60;99.90
14378;DHT22;7272;53.668;9.578;2023-07-30T02:34:36;17.60;99.90
14378;DHT22;7272;53.668;9.578;2023-07-30T02:37:38;17.60;99.90
14378;DHT22;7272;53.668;9.578;2023-07-30T02:40:39;17.60;99.90
14378;DHT22;7272;53.668;9.578;2023-07-30T02:43:41;17.50;99.90
14378;DHT22;7272;53.668;9.578;2023-07-30T02:46:42;17.50;99.90
14378;DHT22;7272;53.668;9.578;2023-07-30T02:49:43;17.60;99.90
14378;DHT22;7272;53.668;9.578;2023-07-30T02:52:45;17.50;99.90
14378;DHT22;7272;53.668;9.578;2023-07-30T02:55:46;17.50;99.90
14378;DHT22;7272;53.668;9.578;2023-07-30T02:58:47;17.40;99.90
14378;DHT22;7272;53.668;9.578;2023-07-30T03:01:48;17.40;99.90
14378;DHT22;7272;53.668;9.578;2023-07-30T03:04:49;17.30;99.90
14378;DHT22;7272;53.668;9.578;2023-07-30T03:07:51;17.30;99.90
14378;DHT22;7272;53.668;9.578;2023-07-30T03:10:53;17.30;99.90
14378;DHT22;7272;53.668;9.578;2023-07-30T03:13:54;17.30;99.90
14378;DHT22;7272;53.668;9.578;2023-07-30T03:16:55;17.40;99.90
14378;DHT22;7272;53.668;9.578;2023-07-30T03:19:56;17.40;99.90
14378;DHT22;7272;53.668;9.578;2023-07-30T03:22:58;17.40;99.90
14378;DHT22;7272;53.668;9.578;2023-07-30T03:25:59;17.30;99.90
14378;DHT22;7272;53.668;9.578;2023-07-30T03:29:01;17.30;99.90
14378;DHT22;7272;53.668;9.578;2023-07-30T03:32:02;17.20;99.90
14378;DHT22;7272;53.668;9.578;2023-07-30T03:35:04;17.40;99.90
14378;DHT22;7272;53.668;9.578;2023-07-30T03:38:06;17.50;99.90
14378;DHT22;7272;53.668;9.578;2023-07-30T03:41:07;17.40;99.90
14378;DHT22;7272;53.668;9.578;2023-07-30T03:44:08;17.40;99.90
14378;DHT22;7272;53.668;9.578;2023-07-30T03:47:09;17.30;99.90
14378;DHT22;7272;53.668;9.578;2023-07-30T03:50:10;17.30;99.90
14378;DHT22;7272;53.668;9.578;2023-07-30T03:53:12;17.30;99.90
14378;DHT22;7272;53.668;9.578;2023-07-30T03:56:13;17.40;99.90
14378;DHT22;7272;53.668;9.578;2023-07-30T03:59:15;17.50;99.90
14378;DHT22;7272;53.668;9.578;2023-07-30T04:02:16;17.40;99.90
14378;DHT22;7272;53.668;9.578;2023-07-30T04:05:17;17.40;99.90
14378;DHT22;7272;53.668;9.578;2023-07-30T04:08:19;17.30;99.90
14378;DHT22;7272;53.668;9.578;2023-07-30T04:11:20;17.30;99.90
14378;DHT22;7272;53.668;9.578;2023-07-30T04:14:21;17.30;99.90
14378;DHT22;7272;53.668;9.578;2023-07-30T04:17:22;17.30;99.90
14378;DHT22;7272;53.668;9.578;2023-07-30T04:20:24;17.40;99.90
14378;DHT22;7272;53.668;9.578;2023-07-30T04:23:25;17.40;99.90
14378;DHT22;7272;53.668;9.578;2023-07-30T04:26:27;17.30;99.90
14378;DHT22;7272;53.668;9.578;2023-07-30T04:29:28;17.30;99.90
14378;DHT22;7272;53.668;9.578;2023-07-30T04:32:29;17.30;99.90
14378;DHT22;7272;53.668;9.578;2023-07-30T04:35:31;17.30;99.90
14378;DHT22;7272;53.668;9.578;2023-07-30T04:38:33;17.40;99.90
14378;DHT22;7272;53.668;9.578;2023-07-30T04:41:34;17.40;99.90
14378;DHT22;7272;53.668;9.578;2023-07-30T04:44:36;17.40;99.90
14378;DHT22;7272;53.668;9.578;2023-07-30T04:47:46;17.40;99.90
14378;DHT22;7272;53.668;9.578;2023-07-30T04:50:47;17.50;99.90
14378;DHT22;7272;53.668;9.578;2023-07-30T04:53:49;17.50;99.90
14378;DHT22;7272;53.668;9.578;2023-07-30T04:56:50;17.50;99.90
14378;DHT22;7272;53.668;9.578;2023-07-30T04:59:51;17.50;99.90
14378;DHT22;7272;53.668;9.578;2023-07-30T05:02:52;17.60;99.90
14378;DHT22;7272;53.668;9.578;2023-07-30T05:05:53;17.60;99.90
14378;DHT22;7272;53.668;9.578;2023-07-30T05:08:55;17.60;99.90
14378;DHT22;7272;53.668;9.578;2023-07-30T05:11:56;17.60;99.90
14378;DHT22;7272;53.668;9.578;2023-07-30T05:14:58;17.60;99.90
14378;DHT22;7272;53.668;9.578;2023-07-30T05:17:59;17.60;99.90
14378;DHT22;7272;53.668;9.578;2023-07-30T05:21:00;17.70;99.90
14378;DHT22;7272;53.668;9.578;2023-07-30T05:24:02;17.80;99.90
14378;DHT22;7272;53.668;9.578;2023-07-30T05:27:04;17.80;99.90
14378;DHT22;7272;53.668;9.578;2023-07-30T05:30:06;17.90;99.90
14378;DHT22;7272;53.668;9.578;2023-07-30T05:33:08;17.90;99.90
14378;DHT22;7272;53.668;9.578;2023-07-30T05:36:09;17.90;99.90
14378;DHT22;7272;53.668;9.578;2023-07-30T05:39:11;17.90;99.90
14378;DHT22;7272;53.668;9.578;2023-07-30T05:42:12;18.00;99.90
14378;DHT22;7272;53.668;9.578;2023-07-30T05:45:13;18.10;99.90
14378;DHT22;7272;53.668;9.578;2023-07-30T05:48:14;18.10;99.90
14378;DHT22;7272;53.668;9.578;2023-07-30T05:51:15;18.10;99.90
14378;DHT22;7272;53.668;9.578;2023-07-30T05:54:17;18.00;99.90
14378;DHT22;7272;53.668;9.578;2023-07-30T05:57:18;18.00;99.90
14378;DHT22;7272;53.668;9.578;2023-07-30T06:00:19;17.90;99.90
14378;DHT22;7272;53.668;9.578;2023-07-30T06:03:21;18.00;99.90
14378;DHT22;7272;53.668;9.578;2023-07-30T06:06:22;18.10;99.90
14378;DHT22;7272;53.668;9.578;2023-07-30T06:09:28;18.20;99.90
14378;DHT22;7272;53.668;9.578;2023-07-30T06:12:29;18.20;99.90
14378;DHT22;7272;53.668;9.578;2023-07-30T06:15:30;18.30;99.90
14378;DHT22;7272;53.668;9.578;2023-07-30T06:18:32;18.20;99.90
14378;DHT22;7272;53.668;9.578;2023-07-30T06:21:33;18.20;99.90
14378;DHT22;7272;53.668;9.578;2023-07-30T06:24:35;18.30;99.90
14378;DHT22;7272;53.668;9.578;2023-07-30T06:27:36;18.30;99.90
14378;DHT22;7272;53.668;9.578;2023-07-30T06:30:37;18.40;99.90
14378;DHT22;7272;53.668;9.578;2023-07-30T06:33:39;18.50;99.90
14378;DHT22;7272;53.668;9.578;2023-07-30T06:36:41;18.60;99.90
14378;DHT22;7272;53.668;9.578;2023-07-30T06:39:42;18.60;99.90
14378;DHT22;7272;53.668;9.578;2023-07-30T06:42:43;18.70;99.90
14378;DHT22;7272;53.668;9.578;2023-07-30T06:45:45;18.70;99.90
14378;DHT22;7272;53.668;9.578;2023-07-30T06:48:46;18.90;99.90
14378;DHT22;7272;53.668;9.578;2023-07-30T06:51:47;18.90;99.90
14378;DHT22;7272;53.668;9.578;2023-07-30T06:54:49;19.00;99.90
14378;DHT22;7272;53.668;9.578;2023-07-30T06:57:50;19.10;99.90
14378;DHT22;7272;53.668;9.578;2023-07-30T07:00:51;19.10;99.90
14378;DHT22;7272;53.668;9.578;2023-07-30T07:03:52;19.10;99.90
14378;DHT22;7272;53.668;9.578;2023-07-30T07:06:53;19.10;99.90
14378;DHT22;7272;53.668;9.578;2023-07-30T07:09:55;19.10;99.90
14378;DHT22;7272;53.668;9.578;2023-07-30T07:12:56;19.30;99.90
14378;DHT22;7272;53.668;9.578;2023-07-30T07:15:58;19.40;99.90
14378;DHT22;7272;53.668;9.578;2023-07-30T07:18:59;19.50;99.90
14378;DHT22;7272;53.668;9.578;2023-07-30T07:22:00;19.60;99.90
14378;DHT22;7272;53.668;9.578;2023-07-30T07:25:02;19.60;99.90
14378;DHT22;7272;53.668;9.578;2023-07-30T07:28:03;19.60;99.90
14378;DHT22;7272;53.668;9.578;2023-07-30T07:31:04;19.60;99.90
14378;DHT22;7272;53.668;9.578;2023-07-30T07:34:05;19.70;99.90
14378;DHT22;7272;53.668;9.578;2023-07-30T07:37:07;19.70;99.90
14378;DHT22;7272;53.668;9.578;2023-07-30T07:40:09;19.70;99.90
14378;DHT22;7272;53.668;9.578;2023-07-30T07:43:11;19.70;99.90
14378;DHT22;7272;53.668;9.578;2023-07-30T07:46:12;19.70;99.90
14378;DHT22;7272;53.668;9.578;2023-07-30T07:49:14;20.00;99.90
14378;DHT22;7272;53.668;9.578;2023-07-30T07:52:15;20.10;99.90
14378;DHT22;7272;53.668;9.578;2023-07-30T07:55:17;20.20;99.90
14378;DHT22;7272;53.668;9.578;2023-07-30T07:58:18;20.30;99.90
14378;DHT22;7272;53.668;9.578;2023-07-30T08:01:19;20.40;99.90
14378;DHT22;7272;53.668;9.578;2023-07-30T08:04:20;20.30;99.90
14378;DHT22;7272;53.668;9.578;2023-07-30T08:07:22;20.10;99.90
14378;DHT22;7272;53.668;9.578;2023-07-30T08:10:24;20.20;99.90
14378;DHT22;7272;53.668;9.578;2023-07-30T08:13:25;20.50;99.90
14378;DHT22;7272;53.668;9.578;2023-07-30T08:16:26;20.80;99.90
14378;DHT22;7272;53.668;9.578;2023-07-30T08:19:27;21.20;99.90
14378;DHT22;7272;53.668;9.578;2023-07-30T08:22:28;21.40;99.90
14378;DHT22;7272;53.668;9.578;2023-07-30T08:25:30;21.30;99.90
14378;DHT22;7272;53.668;9.578;2023-07-30T08:28:31;21.10;99.90
14378;DHT22;7272;53.668;9.578;2023-07-30T08:31:32;21.00;99.90
14378;DHT22;7272;53.668;9.578;2023-07-30T08:34:34;21.10;99.90
14378;DHT22;7272;53.668;9.578;2023-07-30T08:37:35;21.10;99.90
14378;DHT22;7272;53.668;9.578;2023-07-30T08:40:37;21.00;99.90
14378;DHT22;7272;53.668;9.578;2023-07-30T08:43:38;21.00;99.90
14378;DHT22;7272;53.668;9.578;2023-07-30T08:46:39;21.10;99.90
14378;DHT22;7272;53.668;9.578;2023-07-30T08:49:41;21.00;99.90
14378;DHT22;7272;53.668;9.578;2023-07-30T08:52:42;21.20;99.90
14378;DHT22;7272;53.668;9.578;2023-07-30T08:55:46;21.20;99.90
14378;DHT22;7272;53.668;9.578;2023-07-30T08:58:48;21.20;99.90
14378;DHT22;7272;53.668;9.578;2023-07-30T09:01:52;21.00;99.90
14378;DHT22;7272;53.668;9.578;2023-07-30T09:04:57;21.00;99.90
14378;DHT22;7272;53.668;9.578;2023-07-30T09:07:59;20.90;99.90
14378;DHT22;7272;53.668;9.578;2023-07-30T09:11:07;20.80;99.90
14378;DHT22;7272;53.668;9.578;2023-07-30T09:14:08;20.70;99.90
14378;DHT22;7272;53.668;9.578;2023-07-30T09:17:10;20.60;99.90
14378;DHT22;7272;53.668;9.578;2023-07-30T09:20:11;20.60;99.90
14378;DHT22;7272;53.668;9.578;2023-07-30T09:23:12;20.70;99.90
14378;DHT22;7272;53.668;9.578;2023-07-30T09:26:14;20.80;99.90
14378;DHT22;7272;53.668;9.578;2023-07-30T09:29:15;20.90;99.90
14378;DHT22;7272;53.668;9.578;2023-07-30T09:32:17;21.00;99.90
14378;DHT22;7272;53.668;9.578;2023-07-30T09:35:18;21.00;99.90
14378;DHT22;7272;53.668;9.578;2023-07-30T09:38:19;21.00;99.90
14378;DHT22;7272;53.668;9.578;2023-07-30T09:41:21;21.00;99.90
14378;DHT22;7272;53.668;9.578;2023-07-30T09:44:22;21.10;99.90
14378;DHT22;7272;53.668;9.578;2023-07-30T09:47:26;21.20;99.90
14378;DHT22;7272;53.668;9.578;2023-07-30T09:50:27;21.30;99.90
14378;DHT22;7272;53.668;9.578;2023-07-30T09:53:30;21.30;99.90
14378;DHT22;7272;53.668;9.578;2023-07-30T09:56:35;21.20;99.90
14378;DHT22;7272;53.668;9.578;2023-07-30T09:59:37;21.20;99.90
14378;DHT22;7272;53.668;9.578;2023-07-30T10:02:41;21.20;99.90
14378;DHT22;7272;53.668;9.578;2023-07-30T10:05:44;21.40;99.90
14378;DHT22;7272;53.668;9.578;2023-07-30T10:08:46;21.60;99.90
14378;DHT22;7272;53.668;9.578;2023-07-30T10:11:51;21.50;99.90
14378;DHT22;7272;53.668;9.578;2023-07-30T10:14:53;21.50;99.90
14378;DHT22;7272;53.668;9.578;2023-07-30T10:17:56;21.60;99.90
14378;DHT22;7272;53.668;9.578;2023-07-30T10:20:58;21.70;99.90
14378;DHT22;7272;53.668;9.578;2023-07-30T10:24:00;21.80;99.90
14378;DHT22;7272;53.668;9.578;2023-07-30T10:27:06;22.00;99.90
14378;DHT22;7272;53.668;9.578;2023-07-30T10:30:09;22.30;99.90
14378;DHT22;7272;53.668;9.578;2023-07-30T10:33:13;22.40;99.90
14378;DHT22;7272;53.668;9.578;2023-07-30T10:36:17;22.20;99.90
14378;DHT22;7272;53.668;9.578;2023-07-30T10:39:19;22.10;99.90
14378;DHT22;7272;53.668;9.578;2023-07-30T10:42:23;21.90;99.90
14378;DHT22;7272;53.668;9.578;2023-07-30T10:45:25;21.80;99.90
14378;DHT22;7272;53.668;9.578;2023-07-30T10:48:31;21.70;99.90
14378;DHT22;7272;53.668;9.578;2023-07-30T10:51:33;21.60;99.90
14378;DHT22;7272;53.668;9.578;2023-07-30T10:54:34;21.70;99.90
14378;DHT22;7272;53.668;9.578;2023-07-30T10:57:36;21.70;99.90
14378;DHT22;7272;53.668;9.578;2023-07-30T11:00:40;21.80;99.90
14378;DHT22;7272;53.668;9.578;2023-07-30T11:03:41;21.80;99.90
14378;DHT22;7272;53.668;9.578;2023-07-30T11:06:45;21.80;99.90
14378;DHT22;7272;53.668;9.578;2023-07-30T11:09:58;21.80;99.90
14378;DHT22;7272;53.668;9.578;2023-07-30T11:13:00;21.70;99.90
14378;DHT22;7272;53.668;9.578;2023-07-30T11:16:02;21.60;99.90
14378;DHT22;7272;53.668;9.578;2023-07-30T11:19:07;22.00;99.90
14378;DHT22;7272;53.668;9.578;2023-07-30T11:22:09;22.30;99.90
14378;DHT22;7272;53.668;9.578;2023-07-30T11:25:16;22.80;99.90
14378;DHT22;7272;53.668;9.578;2023-07-30T11:28:28;23.30;99.90
14378;DHT22;7272;53.668;9.578;2023-07-30T11:31:30;23.50;99.90
14378;DHT22;7272;53.668;9.578;2023-07-30T11:34:31;23.60;99.90
14378;DHT22;7272;53.668;9.578;2023-07-30T11:37:36;23.70;99.90
14378;DHT22;7272;53.668;9.578;2023-07-30T11:40:40;23.70;99.90
14378;DHT22;7272;53.668;9.578;2023-07-30T11:43:43;23.70;99.90
14378;DHT22;7272;53.668;9.578;2023-07-30T11:46:53;23.50;99.90
14378;DHT22;7272;53.668;9.578;2023-07-30T11:49:55;23.40;99.90
14378;DHT22;7272;53.668;9.578;2023-07-30T11:52:56;23.30;99.90
14378;DHT22;7272;53.668;9.578;2023-07-30T11:55:58;23.20;99.90
14378;DHT22;7272;53.668;9.578;2023-07-30T11:59:01;23.30;99.90
14378;DHT22;7272;53.668;9.578;2023-07-30T12:02:03;23.10;99.90
14378;DHT22;7272;53.668;9.578;2023-07-30T12:05:05;23.00;99.90
14378;DHT22;7272;53.668;9.578;2023-07-30T12:08:13;22.90;99.90
14378;DHT22;7272;53.668;9.578;2023-07-30T12:11:17;22.70;99.90
14378;DHT22;7272;53.668;9.578;2023-07-30T12:14:21;22.50;99.90
14378;DHT22;7272;53.668;9.578;2023-07-30T12:17:22;22.30;99.90
14378;DHT22;7272;53.668;9.578;2023-07-30T12:20:27;22.10;99.90
14378;DHT22;7272;53.668;9.578;2023-07-30T12:23:28;21.70;99.90
14378;DHT22;7272;53.668;9.578;2023-07-30T12:26:30;21.50;99.90
14378;DHT22;7272;53.668;9.578;2023-07-30T12:29:32;21.30;99.90
14378;DHT22;7272;53.668;9.578;2023-07-30T12:32:33;21.10;99.90
14378;DHT22;7272;53.668;9.578;2023-07-30T12:35:34;21.00;99.90
14378;DHT22;7272;53.668;9.578;2023-07-30T12:38:35;21.00;99.90
14378;DHT22;7272;53.668;9.578;2023-07-30T12:41:37;21.00;99.90
14378;DHT22;7272;53.668;9.578;2023-07-30T12:44:38;20.90;99.90
14378;DHT22;7272;53.668;9.578;2023-07-30T12:47:40;20.70;99.90
14378;DHT22;7272;53.668;9.578;2023-07-30T12:50:41;20.50;99.90
14378;DHT22;7272;53.668;9.578;2023-07-30T12:53:42;20.10;99.90
14378;DHT22;7272;53.668;9.578;2023-07-30T12:56:44;19.40;99.90
14378;DHT22;7272;53.668;9.578;2023-07-30T12:59:45;18.90;99.90
14378;DHT22;7272;53.668;9.578;2023-07-30T13:02:46;18.40;99.90
14378;DHT22;7272;53.668;9.578;2023-07-30T13:05:48;18.10;99.90
14378;DHT22;7272;53.668;9.578;2023-07-30T13:08:49;17.90;99.90
14378;DHT22;7272;53.668;9.578;2023-07-30T13:11:50;17.80;99.90
14378;DHT22;7272;53.668;9.578;2023-07-30T13:14:52;17.90;99.90
14378;DHT22;7272;53.668;9.578;2023-07-30T13:17:53;18.00;99.90
14378;DHT22;7272;53.668;9.578;2023-07-30T13:20:54;18.10;99.90
14378;DHT22;7272;53.668;9.578;2023-07-30T13:23:55;18.20;99.90
14378;DHT22;7272;53.668;9.578;2023-07-30T13:26:56;18.30;99.90
14378;DHT22;7272;53.668;9.578;2023-07-30T13:29:58;18.40;99.90
14378;DHT22;7272;53.668;9.578;2023-07-30T13:32:59;18.40;99.90
14378;DHT22;7272;53.668;9.578;2023-07-30T13:36:00;18.40;99.90
14378;DHT22;7272;53.668;9.578;2023-07-30T13:39:01;18.40;99.90
14378;DHT22;7272;53.668;9.578;2023-07-30T13:42:03;18.50;99.90
14378;DHT22;7272;53.668;9.578;2023-07-30T13:45:06;18.50;99.90
14378;DHT22;7272;53.668;9.578;2023-07-30T13:48:07;18.70;99.90
14378;DHT22;7272;53.668;9.578;2023-07-30T13:51:09;18.70;99.90
14378;DHT22;7272;53.668;9.578;2023-07-30T13:54:10;18.80;99.90
14378;DHT22;7272;53.668;9.578;2023-07-30T13:57:12;18.90;99.90
14378;DHT22;7272;53.668;9.578;2023-07-30T14:00:14;19.10;99.90
14378;DHT22;7272;53.668;9.578;2023-07-30T14:03:15;19.10;99.90
14378;DHT22;7272;53.668;9.578;2023-07-30T14:06:17;19.20;99.90
14378;DHT22;7272;53.668;9.578;2023-07-30T14:09:18;19.40;99.90
14378;DHT22;7272;53.668;9.578;2023-07-30T14:12:19;19.70;99.90
14378;DHT22;7272;53.668;9.578;2023-07-30T14:15:21;19.80;99.90
14378;DHT22;7272;53.668;9.578;2023-07-30T14:18:24;19.90;99.90
14378;DHT22;7272;53.668;9.578;2023-07-30T14:21:25;19.90;99.90
14378;DHT22;7272;53.668;9.578;2023-07-30T14:24:26;19.90;99.90
14378;DHT22;7272;53.668;9.578;2023-07-30T14:27:27;20.00;99.90
14378;DHT22;7272;53.668;9.578;2023-07-30T14:30:29;20.20;99.90
14378;DHT22;7272;53.668;9.578;2023-07-30T14:33:30;20.40;99.90
14378;DHT22;7272;53.668;9.578;2023-07-30T14:36:31;20.70;99.90
14378;DHT22;7272;53.668;9.578;2023-07-30T14:39:32;21.00;99.90
14378;DHT22;7272;53.668;9.578;2023-07-30T14:42:34;20.90;99.90
14378;DHT22;7272;53.668;9.578;2023-07-30T14:45:35;21.00;99.90
14378;DHT22;7272;53.668;9.578;2023-07-30T14:48:37;20.90;99.90
14378;DHT22;7272;53.668;9.578;2023-07-30T14:51:38;20.90;99.90
14378;DHT22;7272;53.668;9.578;2023-07-30T14:54:39;20.90;99.90
14378;DHT22;7272;53.668;9.578;2023-07-30T14:57:40;21.10;99.90
14378;DHT22;7272;53.668;9.578;2023-07-30T15:00:42;21.10;99.90
14378;DHT22;7272;53.668;9.578;2023-07-30T15:03:44;21.00;99.90
14378;DHT22;7272;53.668;9.578;2023-07-30T15:06:47;20.90;99.90
14378;DHT22;7272;53.668;9.578;2023-07-30T15:09:48;20.80;99.90
14378;DHT22;7272;53.668;9.578;2023-07-30T15:12:50;20.70;99.90
14378;DHT22;7272;53.668;9.578;2023-07-30T15:15:52;20.70;99.90
14378;DHT22;7272;53.668;9.578;2023-07-30T15:18:53;20.50;99.90
14378;DHT22;7272;53.668;9.578;2023-07-30T15:21:54;20.40;99.90
14378;DHT22;7272;53.668;9.578;2023-07-30T15:24:56;20.20;99.90
14378;DHT22;7272;53.668;9.578;2023-07-30T15:27:57;20.10;99.90
14378;DHT22;7272;53.668;9.578;2023-07-30T15:30:59;20.00;99.90
14378;DHT22;7272;53.668;9.578;2023-07-30T15:34:01;19.80;99.90
14378;DHT22;7272;53.668;9.578;2023-07-30T15:37:04;19.60;99.90
14378;DHT22;7272;53.668;9.578;2023-07-30T15:40:06;19.50;99.90
14378;DHT22;7272;53.668;9.578;2023-07-30T15:43:08;19.50;99.90
14378;DHT22;7272;53.668;9.578;2023-07-30T15:46:10;19.50;99.90
14378;DHT22;7272;53.668;9.578;2023-07-30T15:49:11;19.60;99.90
14378;DHT22;7272;53.668;9.578;2023-07-30T15:52:13;19.70;99.90
14378;DHT22;7272;53.668;9.578;2023-07-30T15:55:14;19.90;99.90
14378;DHT22;7272;53.668;9.578;2023-07-30T15:58:15;19.80;99.90
14378;DHT22;7272;53.668;9.578;2023-07-30T16:01:17;19.60;99.90
14378;DHT22;7272;53.668;9.578;2023-07-30T16:04:18;19.50;99.90
14378;DHT22;7272;53.668;9.578;2023-07-30T16:07:19;19.30;99.90
14378;DHT22;7272;53.668;9.578;2023-07-30T16:10:20;19.40;99.90
14378;DHT22;7272;53.668;9.578;2023-07-30T16:13:21;19.50;99.90
14378;DHT22;7272;53.668;9.578;2023-07-30T16:16:23;19.50;99.90
14378;DHT22;7272;53.668;9.578;2023-07-30T16:19:25;19.60;99.90
14378;DHT22;7272;53.668;9.578;2023-07-30T16:22:27;19.60;99.90
14378;DHT22;7272;53.668;9.578;2023-07-30T16:25:28;19.60;99.90
14378;DHT22;7272;53.668;9.578;2023-07-30T16:28:29;19.60;99.90
14378;DHT22;7272;53.668;9.578;2023-07-30T16:31:31;19.60;99.90
14378;DHT22;7272;53.668;9.578;2023-07-30T16:34:32;19.70;99.90
14378;DHT22;7272;53.668;9.578;2023-07-30T16:37:33;19.70;99.90
14378;DHT22;7272;53.668;9.578;2023-07-30T16:40:34;19.80;99.90
14378;DHT22;7272;53.668;9.578;2023-07-30T16:43:35;19.70;99.90
14378;DHT22;7272;53.668;9.578;2023-07-30T16:46:37;19.60;99.90
14378;DHT22;7272;53.668;9.578;2023-07-30T16:49:39;19.60;99.90
14378;DHT22;7272;53.668;9.578;2023-07-30T16:52:40;19.60;99.90
14378;DHT22;7272;53.668;9.578;2023-07-30T16:55:41;19.50;99.90
14378;DHT22;7272;53.668;9.578;2023-07-30T16:58:42;19.40;99.90
14378;DHT22;7272;53.668;9.578;2023-07-30T17:01:44;19.40;99.90
14378;DHT22;7272;53.668;9.578;2023-07-30T17:04:47;19.30;99.90
14378;DHT22;7272;53.668;9.578;2023-07-30T17:07:48;19.30;99.90
14378;DHT22;7272;53.668;9.578;2023-07-30T17:10:49;19.20;99.90
14378;DHT22;7272;53.668;9.578;2023-07-30T17:13:51;19.10;99.90
14378;DHT22;7272;53.668;9.578;2023-07-30T17:16:54;19.10;99.90
14378;DHT22;7272;53.668;9.578;2023-07-30T17:19:56;18.90;99.90
14378;DHT22;7272;53.668;9.578;2023-07-30T17:22:57;18.80;99.90
14378;DHT22;7272;53.668;9.578;2023-07-30T17:25:59;18.70;99.90
14378;DHT22;7272;53.668;9.578;2023-07-30T17:29:00;18.80;99.90
14378;DHT22;7272;53.668;9.578;2023-07-30T17:32:02;18.80;99.90
14378;DHT22;7272;53.668;9.578;2023-07-30T17:35:05;18.70;99.90
14378;DHT22;7272;53.668;9.578;2023-07-30T17:38:07;18.70;99.90
14378;DHT22;7272;53.668;9.578;2023-07-30T17:41:08;18.60;99.90
14378;DHT22;7272;53.668;9.578;2023-07-30T17:44:09;18.80;99.90
14378;DHT22;7272;53.668;9.578;2023-07-30T17:47:12;18.90;99.90
14378;DHT22;7272;53.668;9.578;2023-07-30T17:50:13;18.90;99.90
14378;DHT22;7272;53.668;9.578;2023-07-30T17:53:14;18.80;99.90
14378;DHT22;7272;53.668;9.578;2023-07-30T17:56:15;18.50;99.90
14378;DHT22;7272;53.668;9.578;2023-07-30T17:59:17;18.40;99.90
14378;DHT22;7272;53.668;9.578;2023-07-30T18:02:21;18.30;99.90
14378;DHT22;7272;53.668;9.578;2023-07-30T18:05:22;18.20;99.90
14378;DHT22;7272;53.668;9.578;2023-07-30T18:08:23;18.10;99.90
14378;DHT22;7272;53.668;9.578;2023-07-30T18:11:24;17.90;99.90
14378;DHT22;7272;53.668;9.578;2023-07-30T18:14:26;17.80;99.90
14378;DHT22;7272;53.668;9.578;2023-07-30T18:17:27;17.70;99.90
14378;DHT22;7272;53.668;9.578;2023-07-30T18:27:50;17.40;99.90
14378;DHT22;7272;53.668;9.578;2023-07-30T18:30:51;17.10;99.90
14378;DHT22;7272;53.668;9.578;2023-07-30T18:33:53;16.80;99.90
14378;DHT22;7272;53.668;9.578;2023-07-30T18:36:54;16.60;99.90
14378;DHT22;7272;53.668;9.578;2023-07-30T18:39:55;16.50;99.90
14378;DHT22;7272;53.668;9.578;2023-07-30T18:42:58;16.60;99.90
14378;DHT22;7272;53.668;9.578;2023-07-30T18:46:00;16.70;99.90
14378;DHT22;7272;53.668;9.578;2023-07-30T18:49:02;16.70;99.90
14378;DHT22;7272;53.668;9.578;2023-07-30T18:52:03;16.60;99.90
14378;DHT22;7272;53.668;9.578;2023-07-30T18:55:05;16.50;99.90
14378;DHT22;7272;53.668;9.578;2023-07-30T18:58:06;16.40;99.90
14378;DHT22;7272;53.668;9.578;2023-07-30T19:01:08;16.40;99.90
14378;DHT22;7272;53.668;9.578;2023-07-30T19:04:10;16.40;99.90
14378;DHT22;7272;53.668;9.578;2023-07-30T19:07:11;16.40;99.90
14378;DHT22;7272;53.668;9.578;2023-07-30T19:10:12;16.40;99.90
14378;DHT22;7272;53.668;9.578;2023-07-30T19:13:13;16.40;99.90
14378;DHT22;7272;53.668;9.578;2023-07-30T19:16:15;16.50;99.90
14378;DHT22;7272;53.668;9.578;2023-07-30T19:19:16;16.50;99.90
14378;DHT22;7272;53.668;9.578;2023-07-30T19:22:17;16.50;99.90
14378;DHT22;7272;53.668;9.578;2023-07-30T19:25:19;16.50;99.90
14378;DHT22;7272;53.668;9.578;2023-07-30T19:28:20;16.50;99.90
14378;DHT22;7272;53.668;9.578;2023-07-30T19:31:22;16.50;99.90